sensor_id;sensor_type;location;lat;lon;timestamp;P1;durP1;ratioP1;P2;durP2;ratioP2
74510;SDS011;62991;50.040;18.400;2022-12-29T00:02:38;4.38;;;1.48;;
74510;SDS011;62991;50.040;18.400;2022-12-29T00:05:39;2.35;;;1.58;;
74510;SDS011;62991;50.040;18.400;2022-12-29T00:08:39;5.30;;;2.35;;
74510;SDS011;62991;50.040;18.400;2022-12-29T00:11:40;4.43;;;1.92;;
74510;SDS011;62991;50.040;18.400;2022-12-29T00:14:41;4.57;;;1.23;;
74510;SDS011;62991;50.040;18.400;2022-12-29T00:18:00;2.88;;;1.77;;
74510;SDS011;62991;50.040;18.400;2022-12-29T00:21:01;5.25;;;2.30;;
74510;SDS011;62991;50.040;18.400;2022-12-29T00:24:22;3.08;;;1.73;;
74510;SDS011;62991;50.040;18.400;2022-12-29T00:27:26;6.20;;;1.92;;
74510;SDS011;62991;50.040;18.400;2022-12-29T00:30:49;9.23;;;2.55;;
74510;SDS011;62991;50.040;18.400;2022-12-29T00:34:10;3.30;;;1.95;;
74510;SDS011;62991;50.040;18.400;2022-12-29T00:37:29;3.78;;;1.77;;
74510;SDS011;62991;50.040;18.400;2022-12-29T00:40:48;8.00;;;2.80;;
74510;SDS011;62991;50.040;18.400;2022-12-29T00:44:08;15.02;;;2.95;;
74510;SDS011;62991;50.040;18.400;2022-12-29T00:47:10;8.07;;;3.40;;
74510;SDS011;62991;50.040;18.400;2022-12-29T00:50:11;3.53;;;2.75;;
74510;SDS011;62991;50.040;18.400;2022-12-29T00:53:11;10.77;;;2.70;;
74510;SDS011;62991;50.040;18.400;2022-12-29T00:56:12;5.47;;;1.95;;
74510;SDS011;62991;50.040;18.400;2022-12-29T00:59:13;11.07;;;3.80;;
74510;SDS011;62991;50.040;18.400;2022-12-29T01:02:13;7.82;;;2.45;;
74510;SDS011;62991;50.040;18.400;2022-12-29T01:05:14;3.42;;;2.45;;
74510;SDS011;62991;50.040;18.400;2022-12-29T01:08:15;5.00;;;2.03;;
74510;SDS011;62991;50.040;18.400;2022-12-29T01:11:15;3.95;;;1.65;;
74510;SDS011;62991;50.040;18.400;2022-12-29T01:14:16;4.68;;;2.20;;
74510;SDS011;62991;50.040;18.400;2022-12-29T01:17:17;5.30;;;2.15;;
74510;SDS011;62991;50.040;18.400;2022-12-29T01:20:18;8.20;;;2.35;;
74510;SDS011;62991;50.040;18.400;2022-12-29T01:23:19;2.00;;;1.17;;
74510;SDS011;62991;50.040;18.400;2022-12-29T01:26:19;2.75;;;1.00;;
74510;SDS011;62991;50.040;18.400;2022-12-29T01:29:20;5.13;;;1.95;;
74510;SDS011;62991;50.040;18.400;2022-12-29T01:32:21;7.93;;;2.67;;
74510;SDS011;62991;50.040;18.400;2022-12-29T01:35:22;5.63;;;2.08;;
74510;SDS011;62991;50.040;18.400;2022-12-29T01:38:23;4.50;;;2.15;;
74510;SDS011;62991;50.040;18.400;2022-12-29T01:41:23;4.57;;;1.85;;
74510;SDS011;62991;50.040;18.400;2022-12-29T01:47:50;3.22;;;1.50;;
74510;SDS011;62991;50.040;18.400;2022-12-29T01:50:55;6.25;;;2.33;;
74510;SDS011;62991;50.040;18.400;2022-12-29T01:53:56;5.30;;;2.42;;
74510;SDS011;62991;50.040;18.400;2022-12-29T01:57:01;5.05;;;2.17;;
74510;SDS011;62991;50.040;18.400;2022-12-29T02:00:13;4.78;;;2.92;;
74510;SDS011;62991;50.040;18.400;2022-12-29T02:03:15;7.22;;;2.80;;
74510;SDS011;62991;50.040;18.400;2022-12-29T02:06:18;4.93;;;1.95;;
74510;SDS011;62991;50.040;18.400;2022-12-29T02:09:22;3.90;;;1.42;;
74510;SDS011;62991;50.040;18.400;2022-12-29T02:12:23;5.18;;;1.83;;
74510;SDS011;62991;50.040;18.400;2022-12-29T02:15:32;2.55;;;1.52;;
74510;SDS011;62991;50.040;18.400;2022-12-29T02:18:56;3.60;;;2.50;;
74510;SDS011;62991;50.040;18.400;2022-12-29T02:22:34;3.97;;;1.60;;
74510;SDS011;62991;50.040;18.400;2022-12-29T02:52:50;15.82;;;4.78;;
74510;SDS011;62991;50.040;18.400;2022-12-29T02:55:56;4.07;;;1.75;;
74510;SDS011;62991;50.040;18.400;2022-12-29T02:58:57;6.38;;;3.13;;
74510;SDS011;62991;50.040;18.400;2022-12-29T03:02:03;6.65;;;3.53;;
74510;SDS011;62991;50.040;18.400;2022-12-29T03:11:46;3.65;;;1.60;;
74510;SDS011;62991;50.040;18.400;2022-12-29T03:15:10;3.80;;;1.42;;
74510;SDS011;62991;50.040;18.400;2022-12-29T03:22:05;5.35;;;1.45;;
74510;SDS011;62991;50.040;18.400;2022-12-29T03:25:30;4.20;;;1.67;;
74510;SDS011;62991;50.040;18.400;2022-12-29T03:28:38;6.55;;;2.20;;
74510;SDS011;62991;50.040;18.400;2022-12-29T03:31:43;3.45;;;1.75;;
74510;SDS011;62991;50.040;18.400;2022-12-29T03:34:46;6.88;;;1.90;;
74510;SDS011;62991;50.040;18.400;2022-12-29T03:37:50;5.72;;;1.98;;
74510;SDS011;62991;50.040;18.400;2022-12-29T03:41:06;1.92;;;1.15;;
74510;SDS011;62991;50.040;18.400;2022-12-29T03:44:11;3.85;;;1.52;;
74510;SDS011;62991;50.040;18.400;2022-12-29T03:47:13;3.90;;;2.08;;
74510;SDS011;62991;50.040;18.400;2022-12-29T03:50:14;4.95;;;1.92;;
74510;SDS011;62991;50.040;18.400;2022-12-29T03:53:15;7.43;;;2.22;;
74510;SDS011;62991;50.040;18.400;2022-12-29T03:56:16;4.70;;;1.90;;
74510;SDS011;62991;50.040;18.400;2022-12-29T03:59:17;5.25;;;2.13;;
74510;SDS011;62991;50.040;18.400;2022-12-29T04:02:18;4.32;;;1.90;;
74510;SDS011;62991;50.040;18.400;2022-12-29T04:05:18;10.57;;;2.72;;
74510;SDS011;62991;50.040;18.400;2022-12-29T04:08:19;8.20;;;3.47;;
74510;SDS011;62991;50.040;18.400;2022-12-29T04:11:20;4.07;;;2.33;;
74510;SDS011;62991;50.040;18.400;2022-12-29T04:14:21;7.85;;;3.05;;
74510;SDS011;62991;50.040;18.400;2022-12-29T04:17:22;4.13;;;2.25;;
74510;SDS011;62991;50.040;18.400;2022-12-29T04:20:22;9.63;;;4.55;;
74510;SDS011;62991;50.040;18.400;2022-12-29T04:23:42;13.32;;;4.30;;
74510;SDS011;62991;50.040;18.400;2022-12-29T04:26:42;15.63;;;4.65;;
74510;SDS011;62991;50.040;18.400;2022-12-29T04:29:43;11.60;;;4.20;;
74510;SDS011;62991;50.040;18.400;2022-12-29T04:32:43;6.80;;;3.08;;
74510;SDS011;62991;50.040;18.400;2022-12-29T04:35:44;6.95;;;3.47;;
74510;SDS011;62991;50.040;18.400;2022-12-29T04:38:45;2.60;;;1.52;;
74510;SDS011;62991;50.040;18.400;2022-12-29T04:41:46;9.00;;;3.88;;
74510;SDS011;62991;50.040;18.400;2022-12-29T04:44:47;4.63;;;2.88;;
74510;SDS011;62991;50.040;18.400;2022-12-29T04:47:47;7.35;;;2.85;;
74510;SDS011;62991;50.040;18.400;2022-12-29T04:50:48;7.80;;;3.75;;
74510;SDS011;62991;50.040;18.400;2022-12-29T04:53:49;5.13;;;2.55;;
74510;SDS011;62991;50.040;18.400;2022-12-29T04:56:50;5.53;;;2.67;;
74510;SDS011;62991;50.040;18.400;2022-12-29T04:59:51;1.83;;;1.00;;
74510;SDS011;62991;50.040;18.400;2022-12-29T05:02:51;7.68;;;2.97;;
74510;SDS011;62991;50.040;18.400;2022-12-29T05:05:53;3.22;;;1.77;;
74510;SDS011;62991;50.040;18.400;2022-12-29T05:08:57;9.70;;;2.53;;
74510;SDS011;62991;50.040;18.400;2022-12-29T05:11:58;4.32;;;1.75;;
74510;SDS011;62991;50.040;18.400;2022-12-29T05:14:58;6.05;;;2.20;;
74510;SDS011;62991;50.040;18.400;2022-12-29T05:17:59;4.13;;;1.52;;
74510;SDS011;62991;50.040;18.400;2022-12-29T05:21:00;3.65;;;1.80;;
74510;SDS011;62991;50.040;18.400;2022-12-29T05:24:01;6.55;;;2.72;;
74510;SDS011;62991;50.040;18.400;2022-12-29T05:27:01;8.55;;;2.83;;
74510;SDS011;62991;50.040;18.400;2022-12-29T05:30:02;6.28;;;2.22;;
74510;SDS011;62991;50.040;18.400;2022-12-29T05:33:03;10.00;;;2.33;;
74510;SDS011;62991;50.040;18.400;2022-12-29T05:36:06;2.75;;;1.48;;
74510;SDS011;62991;50.040;18.400;2022-12-29T05:39:08;4.15;;;2.03;;
74510;SDS011;62991;50.040;18.400;2022-12-29T05:42:08;7.32;;;2.45;;
74510;SDS011;62991;50.040;18.400;2022-12-29T05:45:09;2.75;;;1.98;;
74510;SDS011;62991;50.040;18.400;2022-12-29T05:48:10;5.85;;;2.45;;
74510;SDS011;62991;50.040;18.400;2022-12-29T05:51:11;6.88;;;2.67;;
74510;SDS011;62991;50.040;18.400;2022-12-29T05:54:11;10.68;;;2.35;;
74510;SDS011;62991;50.040;18.400;2022-12-29T05:57:12;3.25;;;1.25;;
74510;SDS011;62991;50.040;18.400;2022-12-29T06:00:13;5.20;;;2.45;;
74510;SDS011;62991;50.040;18.400;2022-12-29T06:03:14;10.57;;;2.55;;
74510;SDS011;62991;50.040;18.400;2022-12-29T06:06:15;5.90;;;2.80;;
74510;SDS011;62991;50.040;18.400;2022-12-29T06:09:16;11.60;;;5.03;;
74510;SDS011;62991;50.040;18.400;2022-12-29T06:12:16;11.80;;;4.55;;
74510;SDS011;62991;50.040;18.400;2022-12-29T06:15:17;9.93;;;4.53;;
74510;SDS011;62991;50.040;18.400;2022-12-29T06:18:18;15.02;;;3.75;;
74510;SDS011;62991;50.040;18.400;2022-12-29T06:21:19;15.32;;;5.13;;
74510;SDS011;62991;50.040;18.400;2022-12-29T06:24:19;14.93;;;5.60;;
74510;SDS011;62991;50.040;18.400;2022-12-29T06:27:20;4.82;;;2.28;;
74510;SDS011;62991;50.040;18.400;2022-12-29T06:30:21;6.32;;;3.03;;
74510;SDS011;62991;50.040;18.400;2022-12-29T06:33:22;10.25;;;2.85;;
74510;SDS011;62991;50.040;18.400;2022-12-29T06:36:22;4.95;;;2.58;;
74510;SDS011;62991;50.040;18.400;2022-12-29T06:39:23;8.48;;;3.63;;
74510;SDS011;62991;50.040;18.400;2022-12-29T06:42:24;18.27;;;4.18;;
74510;SDS011;62991;50.040;18.400;2022-12-29T06:45:24;10.85;;;3.50;;
74510;SDS011;62991;50.040;18.400;2022-12-29T06:48:25;37.88;;;7.90;;
74510;SDS011;62991;50.040;18.400;2022-12-29T06:51:26;14.55;;;6.30;;
74510;SDS011;62991;50.040;18.400;2022-12-29T06:54:26;21.40;;;5.88;;
74510;SDS011;62991;50.040;18.400;2022-12-29T06:57:27;14.60;;;5.85;;
74510;SDS011;62991;50.040;18.400;2022-12-29T07:00:28;27.23;;;6.18;;
74510;SDS011;62991;50.040;18.400;2022-12-29T07:03:29;24.52;;;6.18;;
74510;SDS011;62991;50.040;18.400;2022-12-29T07:06:29;30.67;;;6.43;;
74510;SDS011;62991;50.040;18.400;2022-12-29T07:09:30;20.30;;;5.10;;
74510;SDS011;62991;50.040;18.400;2022-12-29T07:12:31;20.23;;;7.22;;
74510;SDS011;62991;50.040;18.400;2022-12-29T07:15:31;10.88;;;3.30;;
74510;SDS011;62991;50.040;18.400;2022-12-29T07:18:32;6.22;;;3.58;;
74510;SDS011;62991;50.040;18.400;2022-12-29T07:21:33;6.43;;;2.75;;
74510;SDS011;62991;50.040;18.400;2022-12-29T07:24:33;18.23;;;5.95;;
74510;SDS011;62991;50.040;18.400;2022-12-29T07:27:34;15.27;;;5.45;;
74510;SDS011;62991;50.040;18.400;2022-12-29T07:30:36;11.20;;;4.40;;
74510;SDS011;62991;50.040;18.400;2022-12-29T07:33:38;18.35;;;4.70;;
74510;SDS011;62991;50.040;18.400;2022-12-29T07:36:38;4.13;;;2.22;;
74510;SDS011;62991;50.040;18.400;2022-12-29T07:39:39;26.77;;;4.65;;
74510;SDS011;62991;50.040;18.400;2022-12-29T07:42:40;12.90;;;5.95;;
74510;SDS011;62991;50.040;18.400;2022-12-29T07:45:40;10.05;;;4.20;;
74510;SDS011;62991;50.040;18.400;2022-12-29T07:48:41;16.80;;;5.10;;
74510;SDS011;62991;50.040;18.400;2022-12-29T07:51:41;22.20;;;8.45;;
74510;SDS011;62991;50.040;18.400;2022-12-29T07:54:42;13.00;;;5.00;;
74510;SDS011;62991;50.040;18.400;2022-12-29T07:57:43;30.60;;;8.00;;
74510;SDS011;62991;50.040;18.400;2022-12-29T08:00:43;16.67;;;5.30;;
74510;SDS011;62991;50.040;18.400;2022-12-29T08:03:44;19.67;;;8.02;;
74510;SDS011;62991;50.040;18.400;2022-12-29T08:06:45;16.58;;;6.28;;
74510;SDS011;62991;50.040;18.400;2022-12-29T08:09:45;5.85;;;2.85;;
74510;SDS011;62991;50.040;18.400;2022-12-29T08:12:46;28.65;;;10.10;;
74510;SDS011;62991;50.040;18.400;2022-12-29T08:15:47;5.85;;;2.30;;
74510;SDS011;62991;50.040;18.400;2022-12-29T08:18:47;35.72;;;14.45;;
74510;SDS011;62991;50.040;18.400;2022-12-29T08:21:48;13.35;;;5.28;;
74510;SDS011;62991;50.040;18.400;2022-12-29T08:24:49;7.25;;;3.60;;
74510;SDS011;62991;50.040;18.400;2022-12-29T08:27:49;8.02;;;4.18;;
74510;SDS011;62991;50.040;18.400;2022-12-29T08:30:50;9.07;;;4.68;;
74510;SDS011;62991;50.040;18.400;2022-12-29T08:33:51;4.85;;;2.28;;
74510;SDS011;62991;50.040;18.400;2022-12-29T08:36:51;11.40;;;3.63;;
74510;SDS011;62991;50.040;18.400;2022-12-29T08:39:52;9.95;;;4.00;;
74510;SDS011;62991;50.040;18.400;2022-12-29T08:42:53;8.82;;;4.47;;
74510;SDS011;62991;50.040;18.400;2022-12-29T08:45:53;13.70;;;5.30;;
74510;SDS011;62991;50.040;18.400;2022-12-29T08:48:54;12.70;;;5.25;;
74510;SDS011;62991;50.040;18.400;2022-12-29T08:51:54;7.57;;;4.35;;
74510;SDS011;62991;50.040;18.400;2022-12-29T08:54:55;13.50;;;3.72;;
74510;SDS011;62991;50.040;18.400;2022-12-29T08:57:56;13.65;;;5.38;;
74510;SDS011;62991;50.040;18.400;2022-12-29T09:00:57;12.57;;;5.53;;
74510;SDS011;62991;50.040;18.400;2022-12-29T09:03:58;9.70;;;4.53;;
74510;SDS011;62991;50.040;18.400;2022-12-29T09:06:59;12.52;;;5.07;;
74510;SDS011;62991;50.040;18.400;2022-12-29T09:09:59;8.52;;;3.40;;
74510;SDS011;62991;50.040;18.400;2022-12-29T09:13:00;10.70;;;4.25;;
74510;SDS011;62991;50.040;18.400;2022-12-29T09:16:00;14.95;;;4.30;;
74510;SDS011;62991;50.040;18.400;2022-12-29T09:19:01;5.63;;;2.55;;
74510;SDS011;62991;50.040;18.400;2022-12-29T09:22:03;5.32;;;2.47;;
74510;SDS011;62991;50.040;18.400;2022-12-29T09:25:03;7.03;;;3.22;;
74510;SDS011;62991;50.040;18.400;2022-12-29T09:28:05;11.02;;;3.42;;
74510;SDS011;62991;50.040;18.400;2022-12-29T09:31:07;7.15;;;2.95;;
74510;SDS011;62991;50.040;18.400;2022-12-29T09:34:08;2.20;;;1.58;;
74510;SDS011;62991;50.040;18.400;2022-12-29T09:37:08;3.22;;;1.98;;
74510;SDS011;62991;50.040;18.400;2022-12-29T09:40:23;9.82;;;3.63;;
74510;SDS011;62991;50.040;18.400;2022-12-29T09:46:47;13.68;;;4.97;;
74510;SDS011;62991;50.040;18.400;2022-12-29T09:49:54;11.30;;;2.75;;
74510;SDS011;62991;50.040;18.400;2022-12-29T09:53:00;17.90;;;4.78;;
74510;SDS011;62991;50.040;18.400;2022-12-29T09:56:16;13.52;;;4.70;;
74510;SDS011;62991;50.040;18.400;2022-12-29T09:59:22;9.63;;;4.30;;
74510;SDS011;62991;50.040;18.400;2022-12-29T10:09:08;11.65;;;4.85;;
74510;SDS011;62991;50.040;18.400;2022-12-29T10:16:26;10.40;;;4.38;;
74510;SDS011;62991;50.040;18.400;2022-12-29T10:25:55;10.07;;;4.60;;
74510;SDS011;62991;50.040;18.400;2022-12-29T10:28:59;15.57;;;5.32;;
74510;SDS011;62991;50.040;18.400;2022-12-29T10:32:05;9.88;;;4.43;;
74510;SDS011;62991;50.040;18.400;2022-12-29T10:35:16;16.17;;;4.90;;
74510;SDS011;62991;50.040;18.400;2022-12-29T10:38:22;9.00;;;3.55;;
74510;SDS011;62991;50.040;18.400;2022-12-29T10:42:04;13.07;;;4.85;;
74510;SDS011;62991;50.040;18.400;2022-12-29T10:45:27;14.30;;;5.18;;
74510;SDS011;62991;50.040;18.400;2022-12-29T10:48:31;12.02;;;5.22;;
74510;SDS011;62991;50.040;18.400;2022-12-29T10:51:42;12.10;;;4.40;;
74510;SDS011;62991;50.040;18.400;2022-12-29T10:54:46;12.10;;;4.43;;
74510;SDS011;62991;50.040;18.400;2022-12-29T10:57:52;12.77;;;4.55;;
74510;SDS011;62991;50.040;18.400;2022-12-29T11:00:53;8.77;;;2.85;;
74510;SDS011;62991;50.040;18.400;2022-12-29T11:03:57;9.93;;;4.82;;
74510;SDS011;62991;50.040;18.400;2022-12-29T11:07:15;17.90;;;5.47;;
74510;SDS011;62991;50.040;18.400;2022-12-29T11:10:37;16.48;;;6.13;;
74510;SDS011;62991;50.040;18.400;2022-12-29T11:16:58;20.02;;;7.60;;
74510;SDS011;62991;50.040;18.400;2022-12-29T11:20:06;22.27;;;6.78;;
74510;SDS011;62991;50.040;18.400;2022-12-29T11:23:31;16.75;;;6.22;;
74510;SDS011;62991;50.040;18.400;2022-12-29T11:29:39;7.88;;;3.05;;
74510;SDS011;62991;50.040;18.400;2022-12-29T11:32:41;7.78;;;3.55;;
74510;SDS011;62991;50.040;18.400;2022-12-29T11:35:56;9.35;;;3.10;;
74510;SDS011;62991;50.040;18.400;2022-12-29T11:38:58;9.30;;;4.10;;
74510;SDS011;62991;50.040;18.400;2022-12-29T11:41:59;6.30;;;3.70;;
74510;SDS011;62991;50.040;18.400;2022-12-29T11:45:06;6.13;;;2.20;;
74510;SDS011;62991;50.040;18.400;2022-12-29T11:48:18;9.82;;;3.63;;
74510;SDS011;62991;50.040;18.400;2022-12-29T11:51:21;18.08;;;5.20;;
74510;SDS011;62991;50.040;18.400;2022-12-29T11:54:31;11.48;;;4.97;;
74510;SDS011;62991;50.040;18.400;2022-12-29T11:57:35;12.23;;;5.35;;
74510;SDS011;62991;50.040;18.400;2022-12-29T12:00:36;11.65;;;4.80;;
74510;SDS011;62991;50.040;18.400;2022-12-29T12:04:02;12.40;;;5.70;;
74510;SDS011;62991;50.040;18.400;2022-12-29T12:10:20;14.30;;;5.72;;
74510;SDS011;62991;50.040;18.400;2022-12-29T12:17:21;10.80;;;4.65;;
74510;SDS011;62991;50.040;18.400;2022-12-29T12:20:34;18.52;;;4.78;;
74510;SDS011;62991;50.040;18.400;2022-12-29T12:27:18;8.32;;;3.28;;
74510;SDS011;62991;50.040;18.400;2022-12-29T12:30:26;14.93;;;5.75;;
74510;SDS011;62991;50.040;18.400;2022-12-29T12:33:35;6.18;;;2.88;;
74510;SDS011;62991;50.040;18.400;2022-12-29T12:49:47;20.98;;;7.13;;
74510;SDS011;62991;50.040;18.400;2022-12-29T12:56:37;23.73;;;9.60;;
74510;SDS011;62991;50.040;18.400;2022-12-29T12:59:50;15.07;;;6.70;;
74510;SDS011;62991;50.040;18.400;2022-12-29T13:03:12;13.60;;;4.78;;
74510;SDS011;62991;50.040;18.400;2022-12-29T13:10:18;9.70;;;4.95;;
74510;SDS011;62991;50.040;18.400;2022-12-29T13:19:36;14.18;;;5.85;;
74510;SDS011;62991;50.040;18.400;2022-12-29T13:22:59;9.40;;;3.47;;
74510;SDS011;62991;50.040;18.400;2022-12-29T13:26:16;10.77;;;4.10;;
74510;SDS011;62991;50.040;18.400;2022-12-29T13:29:33;4.47;;;2.40;;
74510;SDS011;62991;50.040;18.400;2022-12-29T13:33:00;31.17;;;10.60;;
74510;SDS011;62991;50.040;18.400;2022-12-29T13:36:43;25.30;;;8.20;;
74510;SDS011;62991;50.040;18.400;2022-12-29T13:43:23;16.83;;;5.75;;
74510;SDS011;62991;50.040;18.400;2022-12-29T13:46:28;16.92;;;6.28;;
74510;SDS011;62991;50.040;18.400;2022-12-29T13:49:33;29.55;;;9.65;;
74510;SDS011;62991;50.040;18.400;2022-12-29T13:55:52;19.13;;;7.70;;
74510;SDS011;62991;50.040;18.400;2022-12-29T13:58:58;24.00;;;7.88;;
74510;SDS011;62991;50.040;18.400;2022-12-29T14:02:36;15.98;;;5.57;;
74510;SDS011;62991;50.040;18.400;2022-12-29T14:05:37;19.02;;;7.40;;
74510;SDS011;62991;50.040;18.400;2022-12-29T14:08:38;14.77;;;6.40;;
74510;SDS011;62991;50.040;18.400;2022-12-29T14:11:39;29.55;;;10.63;;
74510;SDS011;62991;50.040;18.400;2022-12-29T14:14:41;34.72;;;12.52;;
74510;SDS011;62991;50.040;18.400;2022-12-29T14:17:41;37.92;;;13.88;;
74510;SDS011;62991;50.040;18.400;2022-12-29T14:20:47;28.33;;;10.85;;
74510;SDS011;62991;50.040;18.400;2022-12-29T14:24:02;18.88;;;6.97;;
74510;SDS011;62991;50.040;18.400;2022-12-29T14:30:46;30.98;;;11.18;;
74510;SDS011;62991;50.040;18.400;2022-12-29T14:37:44;39.35;;;13.93;;
74510;SDS011;62991;50.040;18.400;2022-12-29T14:40:39;41.95;;;14.73;;
74510;SDS011;62991;50.040;18.400;2022-12-29T14:43:39;35.25;;;11.80;;
74510;SDS011;62991;50.040;18.400;2022-12-29T14:46:42;27.00;;;11.40;;
74510;SDS011;62991;50.040;18.400;2022-12-29T14:49:55;39.83;;;12.95;;
74510;SDS011;62991;50.040;18.400;2022-12-29T14:52:58;32.95;;;12.45;;
74510;SDS011;62991;50.040;18.400;2022-12-29T14:56:00;38.13;;;13.70;;
74510;SDS011;62991;50.040;18.400;2022-12-29T14:59:02;22.90;;;8.48;;
74510;SDS011;62991;50.040;18.400;2022-12-29T15:02:04;42.65;;;12.85;;
74510;SDS011;62991;50.040;18.400;2022-12-29T15:05:23;40.72;;;12.68;;
74510;SDS011;62991;50.040;18.400;2022-12-29T15:08:43;22.02;;;7.30;;
74510;SDS011;62991;50.040;18.400;2022-12-29T15:16:04;33.38;;;11.50;;
74510;SDS011;62991;50.040;18.400;2022-12-29T15:18:38;98.32;;;26.23;;
74510;SDS011;62991;50.040;18.400;2022-12-29T15:21:42;89.93;;;26.45;;
74510;SDS011;62991;50.040;18.400;2022-12-29T15:24:44;83.15;;;24.95;;
74510;SDS011;62991;50.040;18.400;2022-12-29T15:27:49;90.68;;;25.05;;
74510;SDS011;62991;50.040;18.400;2022-12-29T15:33:54;50.75;;;18.65;;
74510;SDS011;62991;50.040;18.400;2022-12-29T15:37:06;68.93;;;21.63;;
74510;SDS011;62991;50.040;18.400;2022-12-29T15:40:19;71.13;;;24.50;;
74510;SDS011;62991;50.040;18.400;2022-12-29T15:46:53;60.40;;;20.50;;
74510;SDS011;62991;50.040;18.400;2022-12-29T15:49:56;62.42;;;18.85;;
74510;SDS011;62991;50.040;18.400;2022-12-29T15:53:02;37.38;;;13.90;;
74510;SDS011;62991;50.040;18.400;2022-12-29T15:56:09;25.10;;;10.15;;
74510;SDS011;62991;50.040;18.400;2022-12-29T15:59:29;19.17;;;6.53;;
74510;SDS011;62991;50.040;18.400;2022-12-29T16:02:32;17.08;;;6.88;;
74510;SDS011;62991;50.040;18.400;2022-12-29T16:05:34;20.67;;;6.55;;
74510;SDS011;62991;50.040;18.400;2022-12-29T16:08:38;12.25;;;4.78;;
74510;SDS011;62991;50.040;18.400;2022-12-29T16:11:43;25.88;;;9.32;;
74510;SDS011;62991;50.040;18.400;2022-12-29T16:14:48;30.00;;;11.13;;
74510;SDS011;62991;50.040;18.400;2022-12-29T16:17:54;41.85;;;12.60;;
74510;SDS011;62991;50.040;18.400;2022-12-29T16:20:55;38.10;;;14.73;;
74510;SDS011;62991;50.040;18.400;2022-12-29T16:23:59;26.52;;;7.82;;
74510;SDS011;62991;50.040;18.400;2022-12-29T16:27:06;28.40;;;10.55;;
74510;SDS011;62991;50.040;18.400;2022-12-29T16:30:23;29.30;;;10.27;;
74510;SDS011;62991;50.040;18.400;2022-12-29T16:33:29;13.07;;;5.03;;
74510;SDS011;62991;50.040;18.400;2022-12-29T16:40:30;17.90;;;6.25;;
74510;SDS011;62991;50.040;18.400;2022-12-29T16:46:34;22.27;;;8.93;;
74510;SDS011;62991;50.040;18.400;2022-12-29T16:49:35;9.90;;;3.20;;
74510;SDS011;62991;50.040;18.400;2022-12-29T16:52:38;24.25;;;7.50;;
74510;SDS011;62991;50.040;18.400;2022-12-29T16:55:39;20.33;;;7.50;;
74510;SDS011;62991;50.040;18.400;2022-12-29T16:58:50;22.35;;;9.05;;
74510;SDS011;62991;50.040;18.400;2022-12-29T17:01:57;24.50;;;8.93;;
74510;SDS011;62991;50.040;18.400;2022-12-29T17:04:59;17.75;;;6.10;;
74510;SDS011;62991;50.040;18.400;2022-12-29T17:07:59;31.77;;;10.48;;
74510;SDS011;62991;50.040;18.400;2022-12-29T17:11:02;18.38;;;7.60;;
74510;SDS011;62991;50.040;18.400;2022-12-29T17:17:35;17.55;;;6.00;;
74510;SDS011;62991;50.040;18.400;2022-12-29T17:20:39;43.22;;;15.18;;
74510;SDS011;62991;50.040;18.400;2022-12-29T17:23:41;19.70;;;7.75;;
74510;SDS011;62991;50.040;18.400;2022-12-29T17:26:42;20.38;;;8.07;;
74510;SDS011;62991;50.040;18.400;2022-12-29T17:29:43;16.50;;;6.45;;
74510;SDS011;62991;50.040;18.400;2022-12-29T17:32:53;23.40;;;9.18;;
74510;SDS011;62991;50.040;18.400;2022-12-29T17:36:00;14.25;;;5.20;;
74510;SDS011;62991;50.040;18.400;2022-12-29T17:39:00;19.58;;;6.47;;
74510;SDS011;62991;50.040;18.400;2022-12-29T17:42:01;26.23;;;7.75;;
74510;SDS011;62991;50.040;18.400;2022-12-29T17:45:02;16.60;;;7.10;;
74510;SDS011;62991;50.040;18.400;2022-12-29T17:48:04;27.23;;;8.60;;
74510;SDS011;62991;50.040;18.400;2022-12-29T17:51:19;21.48;;;8.07;;
74510;SDS011;62991;50.040;18.400;2022-12-29T17:54:21;20.23;;;6.95;;
74510;SDS011;62991;50.040;18.400;2022-12-29T17:57:24;19.13;;;6.38;;
74510;SDS011;62991;50.040;18.400;2022-12-29T18:00:28;8.02;;;3.75;;
74510;SDS011;62991;50.040;18.400;2022-12-29T18:03:31;14.30;;;6.05;;
74510;SDS011;62991;50.040;18.400;2022-12-29T18:06:33;19.70;;;8.02;;
74510;SDS011;62991;50.040;18.400;2022-12-29T18:09:34;17.48;;;6.10;;
74510;SDS011;62991;50.040;18.400;2022-12-29T18:12:37;18.08;;;6.85;;
74510;SDS011;62991;50.040;18.400;2022-12-29T18:18:40;9.98;;;4.32;;
74510;SDS011;62991;50.040;18.400;2022-12-29T18:21:40;45.40;;;14.75;;
74510;SDS011;62991;50.040;18.400;2022-12-29T18:24:42;27.88;;;9.02;;
74510;SDS011;62991;50.040;18.400;2022-12-29T18:27:43;7.85;;;3.22;;
74510;SDS011;62991;50.040;18.400;2022-12-29T18:30:43;11.80;;;4.47;;
74510;SDS011;62991;50.040;18.400;2022-12-29T18:33:45;11.15;;;3.97;;
74510;SDS011;62991;50.040;18.400;2022-12-29T18:36:47;7.57;;;3.22;;
74510;SDS011;62991;50.040;18.400;2022-12-29T18:39:48;16.50;;;5.13;;
74510;SDS011;62991;50.040;18.400;2022-12-29T18:42:50;17.00;;;5.35;;
74510;SDS011;62991;50.040;18.400;2022-12-29T18:45:50;21.77;;;6.43;;
74510;SDS011;62991;50.040;18.400;2022-12-29T18:48:51;17.00;;;7.18;;
74510;SDS011;62991;50.040;18.400;2022-12-29T18:51:58;7.57;;;4.32;;
74510;SDS011;62991;50.040;18.400;2022-12-29T18:54:58;7.55;;;3.35;;
74510;SDS011;62991;50.040;18.400;2022-12-29T18:57:59;17.45;;;6.13;;
74510;SDS011;62991;50.040;18.400;2022-12-29T19:01:00;14.25;;;5.25;;
74510;SDS011;62991;50.040;18.400;2022-12-29T19:04:00;14.35;;;6.00;;
74510;SDS011;62991;50.040;18.400;2022-12-29T19:07:01;18.77;;;6.88;;
74510;SDS011;62991;50.040;18.400;2022-12-29T19:10:02;22.27;;;7.10;;
74510;SDS011;62991;50.040;18.400;2022-12-29T19:13:03;14.20;;;4.95;;
74510;SDS011;62991;50.040;18.400;2022-12-29T19:16:03;17.92;;;6.55;;
74510;SDS011;62991;50.040;18.400;2022-12-29T19:19:09;33.17;;;6.93;;
74510;SDS011;62991;50.040;18.400;2022-12-29T19:22:13;11.60;;;5.47;;
74510;SDS011;62991;50.040;18.400;2022-12-29T19:25:14;12.05;;;4.85;;
74510;SDS011;62991;50.040;18.400;2022-12-29T19:28:16;14.65;;;5.65;;
74510;SDS011;62991;50.040;18.400;2022-12-29T19:31:17;13.15;;;5.40;;
74510;SDS011;62991;50.040;18.400;2022-12-29T19:34:17;19.60;;;7.10;;
74510;SDS011;62991;50.040;18.400;2022-12-29T19:37:18;23.95;;;7.30;;
74510;SDS011;62991;50.040;18.400;2022-12-29T19:40:20;17.90;;;7.15;;
74510;SDS011;62991;50.040;18.400;2022-12-29T19:43:23;15.30;;;7.10;;
74510;SDS011;62991;50.040;18.400;2022-12-29T19:46:23;14.68;;;6.32;;
74510;SDS011;62991;50.040;18.400;2022-12-29T19:49:24;17.67;;;6.75;;
74510;SDS011;62991;50.040;18.400;2022-12-29T19:52:25;19.65;;;6.50;;
74510;SDS011;62991;50.040;18.400;2022-12-29T19:55:27;19.52;;;7.80;;
74510;SDS011;62991;50.040;18.400;2022-12-29T19:58:28;12.77;;;5.25;;
74510;SDS011;62991;50.040;18.400;2022-12-29T20:01:28;29.45;;;10.95;;
74510;SDS011;62991;50.040;18.400;2022-12-29T20:04:29;28.10;;;9.70;;
74510;SDS011;62991;50.040;18.400;2022-12-29T20:07:30;25.08;;;10.80;;
74510;SDS011;62991;50.040;18.400;2022-12-29T20:10:31;28.50;;;7.80;;
74510;SDS011;62991;50.040;18.400;2022-12-29T20:13:32;19.58;;;8.40;;
74510;SDS011;62991;50.040;18.400;2022-12-29T20:16:33;10.63;;;6.07;;
74510;SDS011;62991;50.040;18.400;2022-12-29T20:19:34;17.08;;;5.90;;
74510;SDS011;62991;50.040;18.400;2022-12-29T20:22:36;9.63;;;4.15;;
74510;SDS011;62991;50.040;18.400;2022-12-29T20:25:36;10.68;;;5.43;;
74510;SDS011;62991;50.040;18.400;2022-12-29T20:28:37;26.90;;;7.30;;